Time;durP1;ratioP1;P1;durP2;ratioP2;P2;SDS_P1;SDS_P2;PMS_P1;PMS_P2;Temp;Humidity;BMP_temperature;BMP_pressure;BME280_temperature;BME280_humidity;BME280_pressure;Samples;Min_cycle;Max_cycle;Signal;HPM_P1;HPM_P2
2023/12/11 00:01:37;;;;;;;1.15;1.15;;;;;;;0.77;100.00;100836.75;5054814;28;20055;-74
2023/12/11 00:04:03;;;;;;;0.90;0.90;;;;;;;0.34;100.00;100788.25;5028139;28;20036;-73
2023/12/11 00:06:29;;;;;;;0.70;0.70;;;;;;;0.68;100.00;100822.47;5060989;28;20117;-75
2023/12/11 00:08:54;;;;;;;0.55;0.55;;;;;;;0.93;100.00;100896.84;5062551;28;20052;-73
2023/12/11 00:11:20;;;;;;;0.40;0.40;;;;;;;0.43;100.00;100771.44;5055923;28;20050;-73
2023/12/11 00:13:45;;;;;;;0.68;0.68;;;;;;;0.93;100.00;100889.09;5058868;28;20105;-73
2023/12/11 00:16:11;;;;;;;2.92;2.72;;;;;;;1.08;100.00;100894.97;5062506;28;20087;-74
2023/12/11 00:18:36;;;;;;;2.55;1.65;;;;;;;0.53;100.00;100773.63;5069722;28;20076;-73
2023/12/11 00:21:02;;;;;;;6.32;6.03;;;;;;;0.92;100.00;100888.22;5063083;28;20170;-73
2023/12/11 00:23:28;;;;;;;5.45;5.15;;;;;;;0.21;100.00;100757.50;5060489;28;20040;-75
2023/12/11 00:25:54;;;;;;;2.05;1.95;;;;;;;0.67;100.00;100869.78;5063341;28;20045;-74
2023/12/11 00:28:19;;;;;;;6.63;5.88;;;;;;;0.99;100.00;100897.13;5057746;28;20369;-73
2023/12/11 00:30:45;;;;;;;5.47;5.18;;;;;;;0.53;100.00;100792.56;5062148;28;20062;-75
2023/12/11 00:33:10;;;;;;;1.05;0.85;;;;;;;0.20;100.00;100777.25;5066372;28;20060;-75
2023/12/11 00:35:36;;;;;;;0.60;0.60;;;;;;;1.03;100.00;100887.03;5065862;28;20068;-73
2023/12/11 00:38:01;;;;;;;3.30;3.17;;;;;;;0.52;100.00;100831.25;5060638;28;20056;-74
2023/12/11 00:40:27;;;;;;;1.73;1.63;;;;;;;0.34;100.00;100803.72;5064096;28;20033;-73
2023/12/11 00:42:53;;;;;;;1.25;1.00;;;;;;;0.81;100.00;100889.41;5062005;28;20095;-73
2023/12/11 00:45:18;;;;;;;1.73;1.63;;;;;;;0.71;100.00;100884.63;5061175;28;20072;-73
2023/12/11 00:47:44;;;;;;;0.35;0.35;;;;;;;-0.07;100.00;100778.50;5063073;28;20078;-73
2023/12/11 00:50:09;;;;;;;1.73;1.63;;;;;;;0.17;100.00;100784.00;5064009;28;20052;-73
2023/12/11 00:52:35;;;;;;;0.73;0.73;;;;;;;0.60;100.00;100866.91;5043607;28;20563;-73
2023/12/11 00:55:01;;;;;;;7.55;7.00;;;;;;;0.79;100.00;100891.91;5063457;28;20110;-75
2023/12/11 00:57:26;;;;;;;1.65;1.58;;;;;;;0.36;100.00;100784.03;5060383;28;20041;-73
2023/12/11 00:59:52;;;;;;;0.93;0.93;;;;;;;0.09;100.00;100760.38;5063234;28;20048;-73
2023/12/11 01:02:18;;;;;;;3.22;3.03;;;;;;;0.38;100.00;100828.00;5061903;28;20036;-74
2023/12/11 01:04:43;;;;;;;7.13;6.28;;;;;;;0.42;100.00;100847.97;5062938;28;20412;-74
2023/12/11 01:07:09;;;;;;;0.63;0.63;;;;;;;0.82;100.00;100874.00;5065863;28;20027;-74
2023/12/11 01:09:35;;;;;;;0.30;0.30;;;;;;;-0.01;100.00;100751.31;5043637;28;20806;-74
2023/12/11 01:12:00;;;;;;;0.40;0.40;;;;;;;0.13;100.00;100749.41;5058237;28;20057;-74
2023/12/11 01:14:26;;;;;;;2.50;2.35;;;;;;;-0.03;100.00;100752.06;5062737;28;20060;-74
2023/12/11 01:16:52;;;;;;;0.40;0.40;;;;;;;0.42;100.00;100853.13;5056450;28;20075;-75
2023/12/11 01:19:17;;;;;;;2.28;2.17;;;;;;;0.72;100.00;100860.56;5062574;28;20090;-73
2023/12/11 01:21:45;;;;;;;1.67;1.58;;;;;;;-0.33;100.00;100726.59;5069534;28;20028;-72
2023/12/11 01:24:11;;;;;;;1.27;1.27;;;;;;;0.39;100.00;100865.91;5064976;28;20060;-73
2023/12/11 01:26:37;;;;;;;10.38;9.63;;;;;;;0.28;100.00;100869.66;5063450;28;20070;-73
2023/12/11 01:29:03;;;;;;;1.95;1.85;;;;;;;-0.05;100.00;100776.91;5064274;28;20063;-73
2023/12/11 01:31:28;;;;;;;1.42;1.38;;;;;;;0.36;100.00;100833.09;5062720;28;20040;-74
2023/12/11 01:33:54;;;;;;;1.02;1.02;;;;;;;0.51;100.00;100861.31;5062585;28;20032;-73
2023/12/11 01:36:19;;;;;;;12.60;9.65;;;;;;;0.49;100.00;100865.53;5064513;28;20045;-73
2023/12/11 01:38:47;;;;;;;1.52;1.42;;;;;;;-0.37;100.00;100739.25;5063911;28;20397;-74
2023/12/11 01:41:13;;;;;;;3.75;1.42;;;;;;;-0.34;100.00;100726.50;5067383;28;20045;-73
2023/12/11 01:43:38;;;;;;;12.30;11.50;;;;;;;0.36;100.00;100816.72;5065220;28;20056;-73
2023/12/11 01:46:13;;;;;;;1.35;1.35;;;;;;;0.16;100.00;100771.88;5066354;28;20040;-74
2023/12/11 01:48:40;;;;;;;2.92;0.75;;;;;;;0.43;100.00;100846.28;5063346;28;20060;-72
2023/12/11 01:51:09;;;;;;;0.43;0.43;;;;;;;-0.01;100.00;100753.91;5066973;28;20488;-73
2023/12/11 01:53:35;;;;;;;6.38;2.45;;;;;;;-0.27;100.00;100738.88;5058598;28;20063;-72
2023/12/11 01:56:02;;;;;;;1.35;1.27;;;;;;;0.53;100.00;100859.69;5067285;28;20040;-73
2023/12/11 01:58:30;;;;;;;0.70;0.70;;;;;;;0.33;100.00;100830.38;5063857;28;20040;-74
2023/12/11 02:00:55;;;;;;;1.20;1.17;;;;;;;0.29;100.00;100823.28;5064680;28;20071;-74
2023/12/11 02:03:22;;;;;;;4.72;2.92;;;;;;;0.12;100.00;100770.00;5062338;28;20055;-74
2023/12/11 02:05:49;;;;;;;1.65;1.55;;;;;;;0.72;100.00;100857.97;5063825;28;20050;-73
2023/12/11 02:08:15;;;;;;;1.63;1.52;;;;;;;0.75;100.00;100850.38;5055682;28;20136;-73
2023/12/11 02:10:41;;;;;;;6.03;5.70;;;;;;;0.04;100.00;100753.25;5059182;28;20045;-73
2023/12/11 02:13:10;;;;;;;1.52;1.48;;;;;;;0.82;100.00;100863.66;5063623;28;20251;-74
2023/12/11 02:15:44;;;;;;;0.52;0.52;;;;;;;0.60;100.00;100869.50;5044070;28;20493;-73
2023/12/11 02:18:10;;;;;;;1.25;1.20;;;;;;;0.06;100.00;100770.56;5063388;28;20071;-72
2023/12/11 02:20:37;;;;;;;1.80;1.70;;;;;;;0.66;100.00;100834.47;5061841;28;20397;-73
2023/12/11 02:23:23;;;;;;;0.50;0.50;;;;;;;0.26;100.00;100763.78;5061777;28;20040;-74
2023/12/11 02:25:59;;;;;;;7.25;6.60;;;;;;;0.87;100.00;100873.28;5056686;28;20435;-73
2023/12/11 02:28:25;;;;;;;2.42;2.33;;;;;;;0.68;100.00;100827.66;5061284;28;20853;-73
2023/12/11 02:30:51;;;;;;;2.15;2.05;;;;;;;0.44;100.00;100820.53;5052538;28;20036;-73
2023/12/11 02:33:17;;;;;;;0.93;0.82;;;;;;;0.80;100.00;100856.66;5063181;28;20064;-73
2023/12/11 02:35:43;;;;;;;7.53;5.18;;;;;;;0.71;100.00;100825.22;5062953;28;20151;-73
2023/12/11 02:38:09;;;;;;;1.25;1.20;;;;;;;0.65;100.00;100812.91;5065269;28;20036;-73
2023/12/11 02:40:36;;;;;;;1.02;0.93;;;;;;;0.69;100.00;100855.25;5069835;28;21212;-74
2023/12/11 02:43:02;;;;;;;2.60;2.50;;;;;;;0.87;100.00;100842.28;5070102;28;20031;-74
2023/12/11 02:45:27;;;;;;;0.30;0.30;;;;;;;0.63;100.00;100804.19;5051489;28;20057;-74
2023/12/11 02:48:02;;;;;;;2.42;2.33;;;;;;;0.86;100.00;100837.97;5064674;28;20153;-73
2023/12/11 02:50:28;;;;;;;1.60;1.50;;;;;;;0.21;100.00;100731.69;5040327;28;20049;-73
2023/12/11 02:52:54;;;;;;;12.98;11.70;;;;;;;0.88;100.00;100847.53;5061896;28;20071;-72
2023/12/11 02:55:19;;;;;;;1.13;1.10;;;;;;;0.13;100.00;100738.22;5070156;28;20472;-72
2023/12/11 02:57:45;;;;;;;3.20;3.00;;;;;;;0.43;100.00;100759.41;5066402;28;20032;-73
2023/12/11 03:00:10;;;;;;;1.23;1.20;;;;;;;0.49;100.00;100808.75;5063642;28;20039;-72
2023/12/11 03:02:37;;;;;;;0.57;0.55;;;;;;;0.20;100.00;100743.72;5065357;28;20129;-72
2023/12/11 03:05:02;;;;;;;0.68;0.68;;;;;;;0.81;100.00;100827.41;5062527;28;20111;-72
2023/12/11 03:07:28;;;;;;;5.28;4.88;;;;;;;0.31;100.00;100717.56;5061758;28;20399;-74
2023/12/11 03:09:53;;;;;;;2.78;2.67;;;;;;;0.15;100.00;100737.47;5067805;28;20115;-72
2023/12/11 03:12:19;;;;;;;1.13;1.13;;;;;;;0.86;100.00;100820.75;5051675;28;20068;-72
2023/12/11 03:14:44;;;;;;;1.60;1.50;;;;;;;0.88;100.00;100829.47;5045112;28;20067;-73
2023/12/11 03:17:10;;;;;;;5.03;4.80;;;;;;;-0.03;100.00;100709.09;5061632;28;20064;-73
2023/12/11 03:19:35;;;;;;;0.47;0.47;;;;;;;1.00;100.00;100842.06;5060146;28;20119;-72
2023/12/11 03:22:01;;;;;;;0.40;0.40;;;;;;;0.70;100.00;100831.19;5039969;28;20046;-71
2023/12/11 03:24:26;;;;;;;2.25;1.85;;;;;;;0.97;100.00;100826.41;5059480;28;20450;-73
2023/12/11 03:26:52;;;;;;;2.28;2.17;;;;;;;0.29;100.00;100701.97;5061732;28;20496;-73
2023/12/11 03:29:18;;;;;;;1.77;1.00;;;;;;;0.43;100.00;100749.06;5061512;28;20311;-74
2023/12/11 03:31:43;;;;;;;0.75;0.75;;;;;;;0.90;100.00;100825.25;5063731;28;20057;-73
2023/12/11 03:34:10;;;;;;;2.45;2.35;;;;;;;1.11;100.00;100837.38;5062847;28;20033;-73
2023/12/11 03:36:35;;;;;;;1.52;1.42;;;;;;;0.03;100.00;100651.75;5069801;28;20048;-73
2023/12/11 03:39:01;;;;;;;3.85;3.65;;;;;;;1.06;100.00;100844.94;5059247;28;20040;-73
2023/12/11 03:41:26;;;;;;;0.95;0.95;;;;;;;0.43;100.00;100720.69;5066015;28;20045;-72
2023/12/11 03:43:52;;;;;;;0.40;0.40;;;;;;;0.48;100.00;100726.06;5061237;28;20052;-74
2023/12/11 03:46:18;;;;;;;2.67;2.58;;;;;;;1.04;100.00;100843.97;5058573;28;20032;-74
2023/12/11 03:48:43;;;;;;;1.95;1.85;;;;;;;1.12;100.00;100847.75;5063441;28;20061;-74
2023/12/11 03:51:09;;;;;;;2.10;2.00;;;;;;;0.61;100.00;100736.13;5065039;28;20136;-74
2023/12/11 03:53:35;;;;;;;4.95;4.70;;;;;;;1.05;100.00;100845.72;5063332;28;20050;-76
2023/12/11 03:56:01;;;;;;;0.63;0.63;;;;;;;0.56;100.00;100758.25;5062797;28;20048;-75
2023/12/11 03:58:26;;;;;;;0.38;0.38;;;;;;;0.30;100.00;100734.69;5059922;28;20039;-74
2023/12/11 04:00:52;;;;;;;2.38;2.28;;;;;;;0.51;100.00;100768.38;5073622;28;20053;-75
2023/12/11 04:03:18;;;;;;;1.08;1.02;;;;;;;1.08;100.00;100840.72;5047734;28;20054;-74
2023/12/11 04:05:43;;;;;;;2.22;2.13;;;;;;;0.97;100.00;100840.22;5061559;28;20052;-75
2023/12/11 04:08:08;;;;;;;0.63;0.63;;;;;;;0.59;100.00;100763.59;5063711;28;20048;-75
2023/12/11 04:10:34;;;;;;;5.15;4.78;;;;;;;0.68;100.00;100792.41;5042956;28;20129;-73
2023/12/11 04:13:01;;;;;;;0.68;0.68;;;;;;;0.72;100.00;100811.50;5065662;28;20029;-73
2023/12/11 04:15:27;;;;;;;0.60;0.60;;;;;;;0.79;100.00;100811.84;5060088;28;20087;-73
2023/12/11 04:17:52;;;;;;;0.50;0.50;;;;;;;0.80;100.00;100833.41;5047980;28;20053;-74
2023/12/11 04:20:18;;;;;;;2.30;2.20;;;;;;;-0.01;100.00;100720.38;5026035;28;20560;-73
2023/12/11 04:22:43;;;;;;;6.88;6.18;;;;;;;0.01;100.00;100738.50;5026161;28;20562;-75
2023/12/11 04:25:09;;;;;;;15.05;14.02;;;;;;;0.48;100.00;100845.69;5024033;28;20045;-74
2023/12/11 04:27:37;;;;;;;3.38;3.17;;;;;;;0.40;100.00;100845.31;5043817;28;20041;-74
2023/12/11 04:30:04;;;;;;;0.47;0.47;;;;;;;-0.25;100.00;100745.88;5025771;28;20148;-74
2023/12/11 04:32:30;;;;;;;0.50;0.50;;;;;;;0.53;100.00;100840.75;5038247;28;20076;-74
2023/12/11 04:34:55;;;;;;;1.95;1.85;;;;;;;0.39;100.00;100793.63;5046317;28;20468;-74
2023/12/11 04:37:21;;;;;;;0.50;0.50;;;;;;;0.45;100.00;100826.59;5059740;28;20035;-73
2023/12/11 04:39:46;;;;;;;4.00;3.80;;;;;;;0.50;100.00;100819.94;5065531;28;20032;-74
2023/12/11 04:42:12;;;;;;;3.67;3.53;;;;;;;0.58;100.00;100849.59;5063654;28;20060;-74
2023/12/11 04:44:37;;;;;;;8.80;8.23;;;;;;;0.78;100.00;100859.16;5059341;28;20455;-74
2023/12/11 04:47:04;;;;;;;14.00;13.15;;;;;;;0.06;100.00;100806.69;5062725;28;20045;-74
2023/12/11 04:49:30;;;;;;;9.38;8.73;;;;;;;0.61;100.00;100839.41;5067750;28;20139;-75
2023/12/11 04:51:56;;;;;;;1.23;1.20;;;;;;;0.61;100.00;100866.13;5062561;28;20033;-74
2023/12/11 04:54:21;;;;;;;1.20;1.17;;;;;;;0.47;100.00;100854.25;5058823;28;20043;-73
2023/12/11 04:56:47;;;;;;;10.15;7.05;;;;;;;0.13;100.00;100767.47;5057329;28;20131;-74
2023/12/11 04:59:12;;;;;;;1.63;1.58;;;;;;;0.51;100.00;100838.06;5062010;28;20060;-74
2023/12/11 05:01:38;;;;;;;3.35;3.20;;;;;;;0.03;100.00;100759.22;5059054;28;20123;-74
2023/12/11 05:04:03;;;;;;;1.00;1.00;;;;;;;0.11;100.00;100789.72;5057163;28;20033;-74
2023/12/11 05:06:29;;;;;;;2.05;1.95;;;;;;;-0.02;100.00;100790.84;5054952;28;20123;-74
2023/12/11 05:08:54;;;;;;;2.60;2.50;;;;;;;0.38;100.00;100828.88;5058898;28;20040;-73
2023/12/11 05:11:20;;;;;;;6.30;5.97;;;;;;;0.58;100.00;100842.72;5063186;28;20598;-73
2023/12/11 05:13:45;;;;;;;1.55;1.45;;;;;;;0.65;100.00;100840.44;5045428;28;20037;-74
2023/12/11 05:16:11;;;;;;;0.50;0.50;;;;;;;0.24;100.00;100756.78;5064712;28;20205;-74
2023/12/11 05:18:38;;;;;;;3.40;3.22;;;;;;;0.74;100.00;100817.63;5046466;28;20513;-73
2023/12/11 05:21:08;;;;;;;1.58;1.48;;;;;;;-0.03;100.00;100734.00;5046769;28;20519;-71
2023/12/11 05:23:34;;;;;;;4.15;3.95;;;;;;;0.77;100.00;100859.97;5037655;28;20143;-73
2023/12/11 05:26:00;;;;;;;2.70;1.25;;;;;;;0.25;100.00;100743.06;5063732;28;20759;-73
2023/12/11 05:28:25;;;;;;;7.82;7.45;;;;;;;0.32;100.00;100755.44;5046234;28;20117;-73
2023/12/11 05:30:51;;;;;;;4.80;4.35;;;;;;;0.58;100.00;100823.75;5062123;28;20035;-73
2023/12/11 05:33:16;;;;;;;1.17;1.17;;;;;;;0.28;100.00;100757.00;5062854;28;20505;-74
2023/12/11 05:35:42;;;;;;;0.60;0.60;;;;;;;0.82;100.00;100827.50;5063119;28;20052;-74
2023/12/11 05:38:09;;;;;;;6.60;6.00;;;;;;;0.48;100.00;100751.88;5060817;28;20058;-74
2023/12/11 05:40:34;;;;;;;2.95;2.58;;;;;;;0.56;100.00;100759.16;5042159;28;20078;-73
2023/12/11 05:43:00;;;;;;;1.05;1.05;;;;;;;1.24;100.00;100865.53;5062540;28;20039;-74
2023/12/11 05:45:26;;;;;;;1.88;1.77;;;;;;;0.66;100.00;100781.13;5040488;28;20424;-74
2023/12/11 05:47:52;;;;;;;1.42;1.33;;;;;;;0.37;100.00;100743.63;5065345;28;20499;-72
2023/12/11 05:50:17;;;;;;;20.40;19.00;;;;;;;1.16;100.00;100857.44;5064462;28;20039;-75
2023/12/11 05:52:44;;;;;;;2.25;2.05;;;;;;;1.09;100.00;100834.72;5059800;28;20048;-74
2023/12/11 05:55:09;;;;;;;0.50;0.50;;;;;;;0.72;100.00;100816.66;5064640;28;20081;-74
2023/12/11 05:57:35;;;;;;;3.17;2.95;;;;;;;0.55;100.00;100777.16;5062659;28;20044;-74
2023/12/11 06:00:01;;;;;;;4.55;4.30;;;;;;;1.29;100.00;100878.66;5056058;28;20053;-75
2023/12/11 06:02:26;;;;;;;1.17;1.15;;;;;;;0.84;100.00;100799.13;5063615;28;20064;-74
2023/12/11 06:04:52;;;;;;;2.25;2.15;;;;;;;1.29;100.00;100874.41;5049019;28;20194;-73
2023/12/11 06:07:18;;;;;;;1.70;1.60;;;;;;;1.33;100.00;100881.44;5064903;28;20127;-73
2023/12/11 06:09:43;;;;;;;2.70;2.60;;;;;;;1.27;100.00;100876.03;5063627;28;20028;-74
2023/12/11 06:12:09;;;;;;;0.68;0.68;;;;;;;0.57;100.00;100760.91;5059848;28;20076;-74
2023/12/11 06:14:41;;;;;;;37.75;12.15;;;;;;;0.90;100.00;100822.66;5048692;28;20484;-74
2023/12/11 06:17:06;;;;;;;3.78;3.55;;;;;;;1.29;100.00;100855.38;5064883;28;20200;-74
2023/12/11 06:19:32;;;;;;;10.25;9.75;;;;;;;0.98;100.00;100795.50;5066190;28;20162;-74
2023/12/11 06:21:57;;;;;;;1.00;1.00;;;;;;;1.03;100.00;100844.75;5065971;28;20032;-75
2023/12/11 06:24:23;;;;;;;0.90;0.90;;;;;;;1.50;100.00;100864.13;5064281;28;20040;-74
2023/12/11 06:26:49;;;;;;;3.95;3.75;;;;;;;0.86;100.00;100778.53;5064660;28;20051;-73
2023/12/11 06:29:14;;;;;;;4.05;3.83;;;;;;;0.38;100.00;100701.53;5066012;28;20135;-74
2023/12/11 06:31:40;;;;;;;0.40;0.40;;;;;;;0.79;100.00;100761.88;5048499;28;20052;-74
2023/12/11 06:34:06;;;;;;;0.50;0.50;;;;;;;1.52;100.00;100867.63;5046249;28;20456;-74
2023/12/11 06:36:31;;;;;;;1.25;1.15;;;;;;;1.62;100.00;100856.00;5063476;28;20638;-74
2023/12/11 06:38:57;;;;;;;1.38;1.35;;;;;;;0.94;100.00;100747.09;5068196;28;20493;-75
2023/12/11 06:41:23;;;;;;;0.93;0.93;;;;;;;1.29;100.00;100770.09;5035432;28;20559;-76
2023/12/11 06:43:52;;;;;;;1.40;0.93;;;;;;;1.25;100.00;100735.47;5042045;28;20408;-75
2023/12/11 06:46:18;;;;;;;0.50;0.50;;;;;;;1.90;100.00;100866.72;5055372;28;20119;-74
2023/12/11 06:48:44;;;;;;;5.50;4.97;;;;;;;1.37;100.00;100764.44;5063623;28;20135;-76
2023/12/11 06:51:10;;;;;;;2.65;2.50;;;;;;;1.37;100.00;100748.03;5061567;28;20462;-75
2023/12/11 06:53:35;;;;;;;1.42;1.35;;;;;;;1.54;100.00;100757.38;5068500;28;20052;-74
2023/12/11 06:56:01;;;;;;;2.70;2.55;;;;;;;2.06;100.00;100847.53;5056078;28;20068;-75
2023/12/11 06:58:27;;;;;;;1.33;1.25;;;;;;;2.09;100.00;100859.72;5057934;28;20032;-74
2023/12/11 07:00:52;;;;;;;13.85;12.82;;;;;;;2.01;100.00;100840.38;5044125;28;20040;-75
2023/12/11 07:03:18;;;;;;;0.63;0.63;;;;;;;1.36;100.00;100708.41;5056093;28;20052;-75
2023/12/11 07:05:44;;;;;;;0.88;0.88;;;;;;;2.15;100.00;100835.78;5023789;28;20076;-75
2023/12/11 07:08:10;;;;;;;0.32;0.32;;;;;;;2.09;100.00;100828.66;5063053;28;20381;-75
2023/12/11 07:10:36;;;;;;;0.40;0.40;;;;;;;1.99;100.00;100830.00;5067277;28;20518;-75
2023/12/11 07:13:03;;;;;;;4.72;4.53;;;;;;;1.94;100.00;100840.94;5066323;28;20028;-75
2023/12/11 07:15:30;;;;;;;0.60;0.60;;;;;;;1.62;100.00;100721.53;5065771;28;20061;-75
2023/12/11 07:17:58;;;;;;;14.30;13.07;;;;;;;2.33;100.00;100837.41;5063724;28;20493;-76
2023/12/11 07:20:23;;;;;;;7.32;5.65;;;;;;;1.75;100.00;100818.59;5066135;28;20057;-75
2023/12/11 07:22:50;;;;;;;0.88;0.88;;;;;;;1.88;100.00;100850.22;5066333;28;20044;-75
2023/12/11 07:25:16;;;;;;;3.53;3.33;;;;;;;1.73;100.00;100802.13;5066845;28;20040;-76
2023/12/11 07:27:42;;;;;;;7.88;5.60;;;;;;;1.33;100.00;100785.78;5044735;28;20047;-75
2023/12/11 07:30:10;;;;;;;2.30;2.20;;;;;;;1.57;100.00;100849.72;5068310;28;20032;-76
2023/12/11 07:32:36;;;;;;;0.90;0.80;;;;;;;0.94;100.00;100749.66;5067513;28;20072;-76
2023/12/11 07:35:03;;;;;;;1.67;1.65;;;;;;;1.48;100.00;100807.16;5069975;28;20047;-75
2023/12/11 07:37:34;;;;;;;6.85;6.43;;;;;;;1.75;100.00;100811.72;5069301;28;20064;-75
2023/12/11 07:40:00;;;;;;;0.60;0.60;;;;;;;2.11;100.00;100840.84;5066526;28;20028;-75
2023/12/11 07:42:25;;;;;;;1.15;0.98;;;;;;;1.43;100.00;100743.16;5064333;28;20048;-74
2023/12/11 07:44:51;;;;;;;0.50;0.50;;;;;;;1.48;100.00;100742.50;5062460;28;20074;-76
2023/12/11 07:47:16;;;;;;;0.85;0.85;;;;;;;1.59;100.00;100721.38;5061537;28;20053;-77
2023/12/11 07:49:42;;;;;;;1.00;1.00;;;;;;;1.31;100.00;100722.84;5065868;28;20047;-75
2023/12/11 07:52:08;;;;;;;2.15;2.05;;;;;;;1.55;100.00;100714.34;5063905;28;20082;-76
2023/12/11 07:54:33;;;;;;;14.95;14.13;;;;;;;1.94;100.00;100763.31;5044377;28;20143;-76
2023/12/11 07:56:59;;;;;;;1.80;1.70;;;;;;;1.23;100.00;100644.06;5046243;28;20044;-75
2023/12/11 07:59:24;;;;;;;3.20;3.03;;;;;;;2.19;100.00;100829.91;5063932;28;20044;-76
2023/12/11 08:01:52;;;;;;;0.50;0.50;;;;;;;2.19;100.00;100814.38;5067004;28;20071;-76
2023/12/11 08:04:17;;;;;;;6.43;3.60;;;;;;;1.99;100.00;100730.75;5063924;28;20512;-75
2023/12/11 08:06:43;;;;;;;3.25;3.15;;;;;;;2.49;100.00;100822.47;5064189;28;20041;-75
2023/12/11 08:09:09;;;;;;;3.50;3.28;;;;;;;1.67;100.00;100645.88;5066540;28;20756;-75
2023/12/11 08:11:34;;;;;;;4.32;4.13;;;;;;;2.54;100.00;100829.59;5063113;28;20040;-75
2023/12/11 08:14:00;;;;;;;1.45;1.35;;;;;;;2.00;100.00;100763.56;5065879;28;20056;-76
2023/12/11 08:16:26;;;;;;;2.03;1.88;;;;;;;2.04;100.00;100708.53;5063784;28;20040;-76
2023/12/11 08:18:51;;;;;;;2.13;2.03;;;;;;;2.62;100.00;100822.16;5044745;28;20483;-76
2023/12/11 08:21:17;;;;;;;0.50;0.50;;;;;;;2.71;100.00;100817.28;5035057;28;20124;-75
2023/12/11 08:23:45;;;;;;;2.65;1.85;;;;;;;2.94;100.00;100835.41;5045699;28;20045;-74
2023/12/11 08:26:20;;;;;;;1.13;1.13;;;;;;;2.82;100.00;100820.28;5027965;28;20044;-75
2023/12/11 08:29:06;;;;;;;3.40;3.20;;;;;;;2.96;100.00;100837.25;5044598;28;20041;-75
2023/12/11 08:31:32;;;;;;;0.40;0.40;;;;;;;2.06;100.00;100741.41;5043015;28;20366;-75
2023/12/11 08:33:58;;;;;;;9.48;8.77;;;;;;;2.52;100.00;100791.50;5062518;28;20036;-75
2023/12/11 08:36:24;;;;;;;1.27;1.17;;;;;;;2.81;100.00;100815.94;5063618;28;20166;-75
2023/12/11 08:38:49;;;;;;;4.00;3.75;;;;;;;2.71;100.00;100825.06;5065651;28;20138;-75
2023/12/11 08:41:15;;;;;;;1.42;1.33;;;;;;;2.97;100.00;100832.94;5065129;28;20052;-75
2023/12/11 08:43:41;;;;;;;4.13;3.88;;;;;;;2.85;100.00;100823.00;5047054;28;20106;-75
2023/12/11 08:46:07;;;;;;;3.80;3.63;;;;;;;3.05;100.00;100826.34;5061381;28;20115;-75
2023/12/11 08:48:32;;;;;;;1.70;1.55;;;;;;;3.19;100.00;100832.03;5060863;28;20048;-76
2023/12/11 08:50:58;;;;;;;1.15;1.15;;;;;;;2.61;100.00;100745.22;5065427;28;20048;-78
2023/12/11 08:53:23;;;;;;;1.13;1.10;;;;;;;2.97;100.00;100825.16;5065090;28;20139;-74
2023/12/11 08:55:50;;;;;;;6.15;5.78;;;;;;;2.93;100.00;100816.41;5059577;28;20049;-74
2023/12/11 08:58:16;;;;;;;7.53;7.15;;;;;;;2.47;100.00;100726.59;5057472;28;20140;-76
2023/12/11 09:00:42;;;;;;;12.18;11.02;;;;;;;2.94;100.00;100804.31;5069203;28;20064;-75
2023/12/11 09:03:08;;;;;;;17.50;8.15;;;;;;;3.04;100.00;100805.53;5062756;28;20051;-76
2023/12/11 09:05:33;;;;;;;1.90;1.80;;;;;;;3.13;100.00;100808.47;5064612;28;20465;-75
2023/12/11 09:07:59;;;;;;;0.68;0.68;;;;;;;2.46;100.00;100711.00;5062947;28;20548;-75
2023/12/11 09:10:24;;;;;;;3.30;3.10;;;;;;;2.25;100.00;100667.06;5064124;28;20037;-75
2023/12/11 09:12:51;;;;;;;22.95;19.92;;;;;;;2.20;100.00;100685.00;5064714;28;20039;-77
2023/12/11 09:15:17;;;;;;;12.48;11.55;;;;;;;3.07;100.00;100803.97;5052251;28;20082;-77
2023/12/11 09:17:43;;;;;;;1.60;1.50;;;;;;;2.48;100.00;100697.28;5060329;28;20045;-76
2023/12/11 09:20:09;;;;;;;1.48;1.38;;;;;;;2.90;100.00;100807.63;5045730;28;20507;-75
2023/12/11 09:22:37;;;;;;;5.28;5.05;;;;;;;2.33;100.00;100705.34;5065251;28;20147;-75
2023/12/11 09:25:03;;;;;;;10.43;9.57;;;;;;;2.73;100.00;100750.00;5065220;28;20383;-75
2023/12/11 09:27:28;;;;;;;1.95;1.85;;;;;;;2.53;100.00;100713.00;5058888;28;20048;-75
2023/12/11 09:29:54;;;;;;;7.18;6.72;;;;;;;2.85;100.00;100785.84;5062444;28;20048;-76
2023/12/11 09:32:19;;;;;;;7.22;1.67;;;;;;;2.94;100.00;100783.59;5062320;28;20048;-74
2023/12/11 09:34:47;;;;;;;29.98;23.60;;;;;;;2.48;100.00;100704.16;5066571;28;20075;-76
2023/12/11 09:37:15;;;;;;;1.95;1.85;;;;;;;2.22;100.00;100664.34;5063991;28;20079;-74
2023/12/11 09:39:41;;;;;;;1.02;1.02;;;;;;;2.30;100.00;100689.69;5070818;28;20024;-75
2023/12/11 09:42:10;;;;;;;1.65;1.55;;;;;;;2.54;100.00;100701.78;5063096;28;20424;-75
2023/12/11 09:44:36;;;;;;;1.20;1.20;;;;;;;2.53;100.00;100718.19;5062947;28;20037;-76
2023/12/11 09:47:10;;;;;;;0.95;0.95;;;;;;;2.96;100.00;100761.19;5069265;28;20506;-75
2023/12/11 09:49:37;;;;;;;2.33;2.22;;;;;;;2.69;100.00;100784.38;5061593;28;20487;-75
2023/12/11 09:52:03;;;;;;;0.68;0.68;;;;;;;2.64;100.00;100749.66;5067183;28;20036;-76
2023/12/11 09:54:28;;;;;;;1.77;1.67;;;;;;;2.69;100.00;100724.78;5064868;28;20135;-76
2023/12/11 09:56:54;;;;;;;1.63;1.52;;;;;;;2.36;100.00;100695.94;5056771;28;20178;-75
2023/12/11 09:59:22;;;;;;;0.90;0.90;;;;;;;2.15;100.00;100686.50;5045857;28;20083;-76
2023/12/11 10:01:49;;;;;;;1.65;1.55;;;;;;;2.54;100.00;100738.94;5068074;28;20063;-75
2023/12/11 10:04:14;;;;;;;4.40;4.13;;;;;;;2.42;100.00;100709.13;5067184;28;20789;-75
2023/12/11 10:06:40;;;;;;;0.95;0.90;;;;;;;2.90;100.00;100789.47;5070500;28;20037;-75
2023/12/11 10:09:05;;;;;;;6.97;6.63;;;;;;;2.90;100.00;100790.38;5063874;28;20438;-77
2023/12/11 10:11:31;;;;;;;5.28;4.97;;;;;;;2.79;100.00;100763.19;5048222;28;20123;-74
2023/12/11 10:14:17;;;;;;;1.60;1.50;;;;;;;3.07;100.00;100775.44;5065559;28;20163;-74
2023/12/11 10:16:43;;;;;;;1.52;1.48;;;;;;;2.27;100.00;100674.06;5059787;28;20515;-75
2023/12/11 10:19:09;;;;;;;4.97;4.68;;;;;;;2.87;100.00;100759.16;5062928;28;20463;-75
2023/12/11 10:21:39;;;;;;;1.17;1.17;;;;;;;2.20;100.00;100643.59;5070156;28;20135;-76
2023/12/11 10:24:16;;;;;;;2.53;2.33;;;;;;;2.20;100.00;100663.41;5062009;28;20758;-76
2023/12/11 10:26:47;;;;;;;0.73;0.73;;;;;;;3.07;100.00;100780.63;5062760;28;20036;-76
2023/12/11 10:29:23;;;;;;;4.95;4.68;;;;;;;3.09;100.00;100749.53;5066241;28;20095;-76
2023/12/11 10:31:51;;;;;;;1.40;1.30;;;;;;;2.51;100.00;100657.66;5061754;28;20048;-75
2023/12/11 10:34:17;;;;;;;1.63;1.52;;;;;;;2.98;100.00;100710.31;5068163;28;20154;-77
2023/12/11 10:36:52;;;;;;;0.90;0.90;;;;;;;3.28;100.00;100743.31;5067125;28;20059;-75
2023/12/11 10:39:21;;;;;;;0.40;0.40;;;;;;;2.99;100.00;100714.66;5067190;28;20044;-75
2023/12/11 10:41:47;;;;;;;4.32;4.07;;;;;;;3.30;100.00;100741.63;5067189;28;20044;-75
2023/12/11 10:44:26;;;;;;;2.38;2.28;;;;;;;2.94;100.00;100700.66;5061989;28;20051;-75
2023/12/11 10:46:54;;;;;;;3.33;3.13;;;;;;;2.22;100.00;100599.63;5054512;28;20072;-75
2023/12/11 10:49:22;;;;;;;0.90;0.90;;;;;;;2.86;100.00;100730.59;5065251;28;20036;-75
2023/12/11 10:51:48;;;;;;;3.10;3.00;;;;;;;2.61;100.00;100693.44;5047310;28;20028;-75
2023/12/11 10:54:13;;;;;;;9.90;8.35;;;;;;;2.85;100.00;100708.97;5062674;28;20040;-75
2023/12/11 10:56:46;;;;;;;2.95;2.75;;;;;;;3.23;100.00;100713.72;5062381;28;20044;-76
2023/12/11 10:59:12;;;;;;;0.82;0.82;;;;;;;2.82;100.00;100625.06;5066442;28;20048;-76
2023/12/11 11:01:41;;;;;;;5.35;4.97;;;;;;;2.51;100.00;100582.56;5065967;28;20724;-74
2023/12/11 11:04:09;;;;;;;3.05;2.92;;;;;;;3.36;100.00;100710.75;5060884;28;20044;-76
2023/12/11 11:06:46;;;;;;;7.47;6.95;;;;;;;3.19;100.00;100673.00;5064874;28;20063;-76
2023/12/11 11:09:19;;;;;;;10.38;9.57;;;;;;;3.39;100.00;100718.63;5065929;28;20052;-76
2023/12/11 11:11:53;;;;;;;3.67;3.47;;;;;;;3.45;100.00;100702.41;5048415;28;20037;-75
2023/12/11 11:14:47;;;;;;;1.73;1.63;;;;;;;3.56;100.00;100714.91;5063186;28;20841;-76
2023/12/11 11:17:12;;;;;;;3.17;2.93;;;;;;;3.43;100.00;100710.13;5057893;28;20076;-76
2023/12/11 11:20:12;;;;;;;7.90;6.03;;;;;;;3.65;100.00;100696.13;5046505;28;20687;-75
2023/12/11 11:22:38;;;;;;;4.78;2.65;;;;;;;3.46;100.00;100688.59;5046023;28;20077;-75